Time;durP1;ratioP1;P1;durP2;ratioP2;P2;SDS_P1;SDS_P2;PMS_P1;PMS_P2;Temp;Humidity;BMP_temperature;BMP_pressure;BME280_temperature;BME280_humidity;BME280_pressure;Samples;Min_cycle;Max_cycle;Signal;HPM_P1;HPM_P2
2021/04/22 00:00:16;;;;;;;7.00;1.70;;;4.50;24.10;;;;;;4939696;29;20532;-84
2021/04/22 00:02:45;;;;;;;6.90;1.40;;;4.60;24.10;;;;;;4939608;29;20534;-85
2021/04/22 00:05:21;;;;;;;9.50;2.20;;;4.40;24.00;;;;;;4939304;29;20488;-83
2021/04/22 00:07:49;;;;;;;11.00;2.07;;;4.40;25.60;;;;;;4939416;29;20453;-85
2021/04/22 00:10:21;;;;;;;11.43;1.60;;;4.20;26.10;;;;;;4939983;29;20797;-84
2021/04/22 00:12:47;;;;;;;8.30;2.13;;;4.20;28.20;;;;;;4940251;29;20499;-82
2021/04/22 00:15:15;;;;;;;6.93;1.60;;;4.00;29.30;;;;;;4939317;29;20537;-84
2021/04/22 00:17:52;;;;;;;26.53;3.30;;;3.70;34.70;;;;;;4938916;29;20489;-84
2021/04/22 00:20:19;;;;;;;8.17;1.50;;;3.60;39.30;;;;;;4941628;29;20820;-84
2021/04/22 00:22:47;;;;;;;18.37;4.00;;;3.30;44.60;;;;;;4940849;29;20522;-84
2021/04/22 00:25:18;;;;;;;7.20;1.60;;;2.90;50.40;;;;;;4938674;29;20551;-84
2021/04/22 00:27:46;;;;;;;7.00;2.03;;;2.80;59.10;;;;;;4938999;29;20457;-84
2021/04/22 00:30:15;;;;;;;8.20;2.03;;;2.60;66.70;;;;;;4942141;29;20457;-85
2021/04/22 00:32:41;;;;;;;11.80;2.37;;;2.60;78.80;;;;;;4941436;29;20550;-83
2021/04/22 00:35:11;;;;;;;6.40;1.33;;;2.40;86.70;;;;;;4939700;29;20465;-84
2021/04/22 00:37:39;;;;;;;7.77;2.43;;;2.40;91.90;;;;;;4938794;29;20526;-83
2021/04/22 00:40:08;;;;;;;6.60;1.70;;;2.30;97.90;;;;;;4941717;29;20457;-86
2021/04/22 00:42:34;;;;;;;6.80;2.00;;;2.10;99.90;;;;;;4941953;29;20457;-84
2021/04/22 00:45:01;;;;;;;7.33;1.70;;;2.00;99.90;;;;;;4939208;28;20460;-85
2021/04/22 00:47:28;;;;;;;7.03;3.00;;;2.00;99.90;;;;;;4938930;28;20529;-84
2021/04/22 00:49:55;;;;;;;9.63;2.67;;;1.90;99.90;;;;;;4942531;29;20460;-84
2021/04/22 00:52:22;;;;;;;7.53;2.70;;;1.90;99.90;;;;;;4939671;29;20488;-85
2021/04/22 00:54:49;;;;;;;6.37;2.43;;;1.80;99.90;;;;;;4938812;28;20465;-83
2021/04/22 00:57:15;;;;;;;9.83;2.90;;;1.70;99.90;;;;;;4938314;29;20963;-82
2021/04/22 00:59:47;;;;;;;7.53;2.97;;;1.80;99.90;;;;;;4940943;29;20477;-82
2021/04/22 01:02:14;;;;;;;7.68;2.75;;;1.70;99.90;;;;;;4940189;29;21022;-84
2021/04/22 01:04:42;;;;;;;6.90;3.70;;;1.70;99.90;;;;;;4937982;29;20189;-83
2021/04/22 01:07:08;;;;;;;7.30;4.63;;;1.60;99.90;;;;;;4938143;29;20457;-83
2021/04/22 01:09:44;;;;;;;9.10;6.70;;;1.60;99.90;;;;;;4941726;29;20465;-84
2021/04/22 01:12:12;;;;;;;7.60;5.80;;;1.60;99.90;;;;;;4937276;29;20216;-83
2021/04/22 01:14:40;;;;;;;6.80;4.47;;;1.40;99.90;;;;;;4939246;29;20212;-83
2021/04/22 01:17:07;;;;;;;6.50;2.60;;;1.50;99.90;;;;;;4938266;29;20485;-83
2021/04/22 01:19:33;;;;;;;8.03;3.73;;;1.50;99.90;;;;;;4939649;29;20464;-83
2021/04/22 01:22:01;;;;;;;12.13;2.83;;;1.60;99.90;;;;;;4940817;29;20548;-85
2021/04/22 01:24:28;;;;;;;7.50;2.40;;;1.60;99.90;;;;;;4940424;29;20468;-86
2021/04/22 01:26:55;;;;;;;12.03;3.57;;;1.70;99.90;;;;;;4938044;29;20668;-83
2021/04/22 01:29:29;;;;;;;6.45;1.85;;;1.70;99.90;;;;;;4942932;29;20456;-83
2021/04/22 01:31:55;;;;;;;15.20;4.30;;;1.70;99.90;;;;;;4941357;29;20670;-82
2021/04/22 01:34:22;;;;;;;14.23;4.43;;;1.60;99.90;;;;;;4939957;29;20457;-83
2021/04/22 01:36:53;;;;;;;11.93;3.97;;;1.60;99.90;;;;;;4936958;29;20457;-83
2021/04/22 01:39:20;;;;;;;8.60;4.03;;;1.60;99.90;;;;;;4939331;29;20461;-85
2021/04/22 01:41:47;;;;;;;20.03;7.53;;;1.50;99.90;;;;;;4941411;29;20280;-84
2021/04/22 01:44:13;;;;;;;10.93;5.70;;;1.50;99.90;;;;;;4939873;29;20469;-84
2021/04/22 01:46:40;;;;;;;21.37;6.73;;;1.50;99.90;;;;;;4937693;29;20500;-84
2021/04/22 01:49:06;;;;;;;38.30;7.78;;;1.40;99.90;;;;;;4940394;29;20481;-85
2021/04/22 01:51:33;;;;;;;8.48;6.30;;;1.40;99.90;;;;;;4940205;29;20665;-85
2021/04/22 01:54:01;;;;;;;16.30;9.13;;;1.30;99.90;;;;;;4938527;29;20221;-83
2021/04/22 01:56:28;;;;;;;11.40;10.40;;;1.30;99.90;;;;;;4937708;29;20453;-82
2021/04/22 01:58:55;;;;;;;30.38;13.43;;;1.20;99.90;;;;;;4940287;29;20193;-86
2021/04/22 02:01:23;;;;;;;17.93;16.63;;;1.20;99.90;;;;;;4940839;29;20198;-85
2021/04/22 02:03:49;;;;;;;20.10;18.58;;;1.10;99.90;;;;;;4940768;29;20456;-83
2021/04/22 02:06:16;;;;;;;20.05;18.75;;;1.10;99.90;;;;;;4937087;29;20193;-85
2021/04/22 02:08:43;;;;;;;21.00;19.83;;;1.00;99.90;;;;;;4940597;29;20219;-83
2021/04/22 02:11:11;;;;;;;26.80;25.23;;;0.90;99.90;;;;;;4941151;29;20257;-84
2021/04/22 02:13:40;;;;;;;19.55;18.10;;;0.90;99.90;;;;;;4939116;29;20304;-82
2021/04/22 02:16:10;;;;;;;14.02;13.13;;;0.80;99.90;;;;;;4936624;29;20570;-85
2021/04/22 02:18:37;;;;;;;11.20;10.30;;;0.90;99.90;;;;;;4938204;29;20201;-83
2021/04/22 02:21:04;;;;;;;15.52;10.85;;;0.90;99.90;;;;;;4937754;29;20205;-83
2021/04/22 02:23:31;;;;;;;10.85;9.95;;;0.90;99.90;;;;;;4938460;29;20629;-84
2021/04/22 02:26:00;;;;;;;8.70;6.40;;;0.90;99.90;;;;;;4936749;29;20205;-84
2021/04/22 02:28:26;;;;;;;11.93;11.05;;;0.90;99.90;;;;;;4936868;29;20514;-84
2021/04/22 02:30:54;;;;;;;19.88;18.48;;;0.80;99.90;;;;;;4938413;29;20644;-84
2021/04/22 02:33:20;;;;;;;24.03;15.57;;;0.90;99.90;;;;;;4940052;29;20251;-82
2021/04/22 02:35:51;;;;;;;20.60;19.33;;;0.90;99.90;;;;;;4938486;29;20465;-83
2021/04/22 02:38:18;;;;;;;25.48;23.60;;;0.90;99.90;;;;;;4939075;29;20470;-84
2021/04/22 02:40:49;;;;;;;22.45;21.20;;;1.00;99.90;;;;;;4937436;29;20567;-84
2021/04/22 02:43:20;;;;;;;24.52;23.10;;;0.90;99.90;;;;;;4933522;29;20247;-83
2021/04/22 02:45:57;;;;;;;24.48;22.58;;;1.00;99.90;;;;;;4933661;29;20211;-83
2021/04/22 02:48:28;;;;;;;20.45;19.15;;;0.80;99.90;;;;;;4933482;29;20193;-84
2021/04/22 02:50:58;;;;;;;26.45;25.05;;;0.70;99.90;;;;;;4932951;29;20217;-83
2021/04/22 02:53:25;;;;;;;30.67;28.50;;;0.70;99.90;;;;;;4933133;29;20347;-83
2021/04/22 02:55:52;;;;;;;30.65;28.42;;;0.80;99.90;;;;;;4932272;29;20197;-85
2021/04/22 02:58:20;;;;;;;41.67;39.67;;;0.70;99.90;;;;;;4937288;29;20259;-82
2021/04/22 03:00:49;;;;;;;37.58;35.58;;;0.70;99.90;;;;;;4939029;29;20564;-83
2021/04/22 03:03:16;;;;;;;35.63;33.63;;;0.70;99.90;;;;;;4937590;29;20275;-84
2021/04/22 03:05:43;;;;;;;39.80;37.80;;;0.60;99.90;;;;;;4934912;28;20203;-83
2021/04/22 03:08:10;;;;;;;42.75;40.25;;;0.50;99.90;;;;;;4935513;29;20212;-85
2021/04/22 03:10:37;;;;;;;41.10;39.30;;;0.50;99.90;;;;;;4935333;29;20200;-83
2021/04/22 03:13:07;;;;;;;41.90;40.00;;;0.40;99.90;;;;;;4937286;29;20613;-82
2021/04/22 03:15:38;;;;;;;43.35;41.30;;;0.50;99.90;;;;;;4935286;29;20236;-84
2021/04/22 03:18:08;;;;;;;44.63;42.28;;;0.30;99.90;;;;;;4933656;29;20193;-83
2021/04/22 03:20:34;;;;;;;46.03;41.95;;;0.40;99.90;;;;;;4935502;29;20197;-82
2021/04/22 03:23:02;;;;;;;41.60;39.70;;;0.40;99.90;;;;;;4934959;29;20259;-84
2021/04/22 03:25:28;;;;;;;46.70;44.40;;;0.40;99.90;;;;;;4934157;29;20197;-82
2021/04/22 03:27:56;;;;;;;43.55;41.65;;;0.40;99.90;;;;;;4932580;29;20193;-83
2021/04/22 03:30:28;;;;;;;47.17;43.90;;;0.50;99.90;;;;;;4937564;29;20201;-84
2021/04/22 03:32:56;;;;;;;47.78;45.58;;;0.40;99.90;;;;;;4936604;29;20261;-83
2021/04/22 03:35:32;;;;;;;55.63;51.38;;;0.60;99.90;;;;;;4935372;29;20274;-84
2021/04/22 03:38:06;;;;;;;53.83;51.47;;;0.60;99.90;;;;;;4937628;29;20197;-83
2021/04/22 03:40:32;;;;;;;53.15;50.45;;;0.60;99.90;;;;;;4936560;29;20200;-82
2021/04/22 03:42:59;;;;;;;42.95;40.00;;;0.60;99.90;;;;;;4936336;29;20648;-85
2021/04/22 03:45:26;;;;;;;49.95;47.55;;;0.60;99.90;;;;;;4934810;29;20251;-85
2021/04/22 03:47:52;;;;;;;51.47;49.28;;;0.50;99.90;;;;;;4933398;29;20295;-82
2021/04/22 03:50:26;;;;;;;61.08;51.75;;;0.50;99.90;;;;;;4934374;29;20194;-86
2021/04/22 03:52:54;;;;;;;54.78;52.38;;;0.40;99.90;;;;;;4939213;29;20355;-83
2021/04/22 03:55:29;;;;;;;55.88;53.47;;;0.30;99.90;;;;;;4936319;29;20251;-82
2021/04/22 03:57:55;;;;;;;54.03;51.63;;;0.30;99.90;;;;;;4929269;29;20188;-85
2021/04/22 04:00:24;;;;;;;55.08;52.67;;;0.40;99.90;;;;;;4931393;29;20228;-84
2021/04/22 04:02:52;;;;;;;57.42;54.95;;;0.30;99.90;;;;;;4937671;28;20587;-83
2021/04/22 04:05:22;;;;;;;62.80;60.05;;;0.30;99.90;;;;;;4937047;29;20197;-83
2021/04/22 04:07:48;;;;;;;58.92;56.40;;;0.40;99.90;;;;;;4938121;28;20209;-81
2021/04/22 04:10:22;;;;;;;64.53;59.28;;;0.30;99.90;;;;;;4915532;29;20657;-84
2021/04/22 04:12:57;;;;;;;63.92;61.13;;;0.30;99.90;;;;;;4915249;29;20218;-83
2021/04/22 04:15:25;;;;;;;63.53;60.17;;;0.30;99.90;;;;;;4914132;28;20212;-84
2021/04/22 04:17:51;;;;;;;63.40;59.70;;;0.30;99.90;;;;;;4914835;29;20198;-80
2021/04/22 04:20:18;;;;;;;61.25;58.50;;;0.30;99.90;;;;;;4926250;29;20204;-86
2021/04/22 04:22:46;;;;;;;63.30;60.60;;;0.30;99.90;;;;;;4935461;29;20219;-85
2021/04/22 04:25:14;;;;;;;65.85;63.05;;;0.30;99.90;;;;;;4935775;29;20245;-84
2021/04/22 04:28:07;;;;;;;64.95;61.75;;;0.30;99.90;;;;;;4934593;28;20208;-84
2021/04/22 04:30:37;;;;;;;66.60;63.65;;;0.30;99.90;;;;;;4934301;28;20237;-83
2021/04/22 04:33:04;;;;;;;73.00;69.75;;;0.30;99.90;;;;;;4935334;28;20237;-80
2021/04/22 04:35:30;;;;;;;71.28;68.18;;;0.40;99.90;;;;;;4935638;28;20191;-80
2021/04/22 04:38:00;;;;;;;67.82;64.88;;;0.30;99.90;;;;;;4956500;28;20620;-82
2021/04/22 04:40:41;;;;;;;66.20;62.55;;;0.40;99.90;;;;;;5012005;28;20276;-83
2021/04/22 04:43:09;;;;;;;63.53;60.25;;;0.50;99.90;;;;;;4996620;28;20193;-83
2021/04/22 04:45:36;;;;;;;60.85;58.05;;;0.50;99.90;;;;;;4937136;29;20231;-83
2021/04/22 04:48:19;;;;;;;65.15;62.33;;;0.50;99.90;;;;;;4937303;29;20782;-83
2021/04/22 04:50:50;;;;;;;87.20;82.25;;;0.50;99.90;;;;;;4944963;29;20284;-84
2021/04/22 04:53:16;;;;;;;81.60;78.00;;;0.70;99.90;;;;;;4941566;29;20359;-82
2021/04/22 04:55:45;;;;;;;82.25;78.68;;;0.80;99.90;;;;;;4939837;29;20224;-82
2021/04/22 04:58:14;;;;;;;82.55;78.95;;;0.80;99.90;;;;;;4940860;29;20197;-83
2021/04/22 05:00:45;;;;;;;77.65;74.30;;;0.90;99.90;;;;;;4946930;29;20291;-83
2021/04/22 05:03:15;;;;;;;88.70;84.90;;;0.90;99.90;;;;;;4945989;29;20216;-82
2021/04/22 05:05:44;;;;;;;91.88;87.18;;;1.00;99.90;;;;;;4943849;29;20649;-83
2021/04/22 05:11:03;;;;;;;86.68;82.68;;;1.10;99.90;;;;;;4932148;29;20664;-86
2021/04/22 05:13:32;;;;;;;105.28;98.40;;;1.20;99.90;;;;;;4940970;29;20225;-86
2021/04/22 05:16:07;;;;;;;106.47;101.63;;;1.30;99.90;;;;;;4940608;29;20228;-85
2021/04/22 05:19:01;;;;;;;95.78;91.05;;;1.40;99.90;;;;;;4937348;29;20203;-84
2021/04/22 05:21:29;;;;;;;98.97;94.10;;;1.50;99.90;;;;;;4945260;28;20201;-84
2021/04/22 05:24:00;;;;;;;104.28;97.28;;;1.50;99.90;;;;;;4934202;29;20492;-85
2021/04/22 05:26:36;;;;;;;97.10;92.60;;;1.80;99.90;;;;;;4938573;29;20263;-84
2021/04/22 05:29:06;;;;;;;79.83;75.53;;;2.00;99.90;;;;;;4935832;29;20847;-85
2021/04/22 05:31:40;;;;;;;59.17;56.47;;;2.40;99.90;;;;;;4935530;29;20472;-83
2021/04/22 05:34:10;;;;;;;43.03;39.80;;;2.60;99.90;;;;;;4935409;29;20488;-83
2021/04/22 05:36:42;;;;;;;23.93;20.30;;;3.00;99.90;;;;;;4935339;29;20457;-84
2021/04/22 05:39:09;;;;;;;13.33;8.67;;;3.30;99.90;;;;;;4935806;29;20453;-83
2021/04/22 05:41:35;;;;;;;8.30;4.10;;;3.60;99.90;;;;;;4939575;29;20457;-82
2021/04/22 05:44:02;;;;;;;17.70;4.20;;;3.90;99.90;;;;;;4937491;29;20487;-85
2021/04/22 05:46:30;;;;;;;31.43;4.27;;;4.20;99.90;;;;;;4933945;28;20828;-84
2021/04/22 05:48:58;;;;;;;10.30;2.80;;;4.40;99.90;;;;;;4938824;29;20874;-83
2021/04/22 05:51:25;;;;;;;24.87;4.77;;;4.60;96.60;;;;;;4941066;29;20493;-82
2021/04/22 05:53:52;;;;;;;9.00;3.10;;;4.70;85.10;;;;;;4940224;29;20486;-81
2021/04/22 05:56:18;;;;;;;15.23;3.70;;;4.90;73.60;;;;;;4936857;29;20990;-85
2021/04/22 05:58:44;;;;;;;12.90;3.60;;;5.00;73.70;;;;;;4939440;29;20463;-84
2021/04/22 06:01:11;;;;;;;16.90;3.90;;;5.10;73.80;;;;;;4935414;29;20903;-83
2021/04/22 06:03:38;;;;;;;18.60;2.93;;;5.10;73.30;;;;;;4933232;29;20973;-88
2021/04/22 06:06:05;;;;;;;8.27;1.97;;;5.00;66.80;;;;;;4934217;29;20497;-87
2021/04/22 06:08:31;;;;;;;7.70;2.13;;;5.00;75.80;;;;;;4933808;29;20557;-87
2021/04/22 06:10:58;;;;;;;31.40;4.20;;;4.90;76.90;;;;;;4935335;29;20471;-83
2021/04/22 06:13:24;;;;;;;10.40;3.27;;;4.90;71.50;;;;;;4940762;29;20529;-85
2021/04/22 06:15:54;;;;;;;10.60;2.33;;;4.80;71.80;;;;;;4939869;29;20529;-85
2021/04/22 06:18:22;;;;;;;16.20;1.90;;;4.80;75.30;;;;;;4938626;28;20503;-83
2021/04/22 06:20:54;;;;;;;12.60;2.50;;;4.80;81.90;;;;;;4937908;28;20527;-88
2021/04/22 06:23:21;;;;;;;18.47;2.67;;;4.80;67.50;;;;;;4915291;28;20469;-86
2021/04/22 06:26:00;;;;;;;;;;;;;;;;;;;;;
2021/04/22 06:28:28;;;;;;;13.27;1.70;;;5.00;77.90;;;;;;4914865;29;20508;-86
2021/04/22 06:30:56;;;;;;;6.80;1.93;;;5.10;80.80;;;;;;4930912;29;20461;-87
2021/04/22 06:33:24;;;;;;;10.13;1.80;;;5.00;68.70;;;;;;4933771;29;20492;-86
2021/04/22 06:35:54;;;;;;;6.60;1.20;;;5.00;68.10;;;;;;4933614;28;20487;-86
2021/04/22 06:38:22;;;;;;;12.70;2.90;;;5.10;65.60;;;;;;4934035;29;20457;-87
2021/04/22 06:40:50;;;;;;;10.93;3.00;;;5.10;68.00;;;;;;4934915;28;20461;-83
2021/04/22 06:43:16;;;;;;;15.10;3.30;;;5.00;62.70;;;;;;4934303;29;20476;-83
2021/04/22 06:45:51;;;;;;;15.00;4.00;;;5.20;65.10;;;;;;4932734;28;20198;-84
2021/04/22 06:48:25;;;;;;;12.00;2.90;;;5.30;66.00;;;;;;4934221;28;20476;-83
2021/04/22 06:50:55;;;;;;;8.50;2.70;;;5.40;61.50;;;;;;4934568;29;20500;-83
2021/04/22 06:53:32;;;;;;;17.60;3.10;;;5.50;60.80;;;;;;4935542;28;20492;-84
2021/04/22 06:56:02;;;;;;;10.13;2.63;;;5.50;52.60;;;;;;4933338;29;20472;-83
2021/04/22 06:58:45;;;;;;;11.03;2.30;;;5.70;63.60;;;;;;4933924;29;21000;-83
2021/04/22 07:01:11;;;;;;;7.60;2.23;;;5.90;58.40;;;;;;4933799;29;20490;-85
2021/04/22 07:03:38;;;;;;;6.63;1.30;;;6.00;53.20;;;;;;4933064;29;20869;-84
2021/04/22 07:06:19;;;;;;;11.50;3.20;;;6.10;50.10;;;;;;4934223;29;20485;-83
2021/04/22 07:08:50;;;;;;;16.03;2.30;;;6.20;48.80;;;;;;4933842;28;20479;-82
2021/04/22 07:11:38;;;;;;;10.73;3.00;;;6.20;37.60;;;;;;4933597;29;20476;-83
2021/04/22 07:24:15;;;;;;;16.73;3.47;;;6.60;30.10;;;;;;4933414;29;20471;-83
2021/04/22 07:30:09;;;;;;;11.90;3.03;;;6.70;31.90;;;;;;4938180;28;20459;-83
2021/04/22 07:35:45;;;;;;;14.40;3.03;;;7.30;27.40;;;;;;4963387;28;20467;-84
2021/04/22 07:38:43;;;;;;;8.43;1.50;;;7.70;15.20;;;;;;4932560;28;20563;-83
2021/04/22 07:44:11;;;;;;;10.30;2.43;;;8.30;14.60;;;;;;4920373;29;20462;-83
2021/04/22 07:46:43;;;;;;;14.43;2.00;;;7.90;8.10;;;;;;4931496;28;20509;-83
2021/04/22 07:49:23;;;;;;;10.83;1.33;;;8.20;7.50;;;;;;4933021;29;20460;-84
2021/04/22 07:51:59;;;;;;;9.60;2.17;;;8.30;8.20;;;;;;4933376;29;20978;-84
2021/04/22 07:54:28;;;;;;;13.88;1.88;;;8.30;6.60;;;;;;4931373;29;20893;-84
2021/04/22 07:57:02;;;;;;;11.53;1.87;;;8.30;6.90;;;;;;4932901;29;20206;-84
2021/04/22 07:59:33;;;;;;;12.23;2.20;;;8.30;8.50;;;;;;5668306;23;20749;-81
2021/04/22 08:02:07;;;;;;;13.07;2.50;;;8.70;3.80;;;;;;4934222;29;20546;-81
2021/04/22 08:04:34;;;;;;;19.27;3.00;;;9.00;2.90;;;;;;4933131;29;20542;-82
2021/04/22 08:07:04;;;;;;;13.80;2.00;;;9.30;4.20;;;;;;4933125;29;20441;-81
2021/04/22 08:09:33;;;;;;;19.00;2.30;;;9.30;1.00;;;;;;4933809;29;20450;-83
2021/04/22 08:12:10;;;;;;;17.03;2.07;;;10.10;1.00;;;;;;4933471;29;20455;-81
2021/04/22 08:14:43;;;;;;;17.73;2.40;;;10.10;1.00;;;;;;4935360;29;21062;-82
2021/04/22 08:17:23;;;;;;;28.13;3.43;;;10.10;1.00;;;;;;4937155;29;20448;-82
2021/04/22 08:19:56;;;;;;;18.97;2.80;;;10.10;1.00;;;;;;4936729;29;20445;-81
2021/04/22 08:22:40;;;;;;;24.60;3.67;;;9.80;1.00;;;;;;4936601;29;20535;-82
2021/04/22 08:25:16;;;;;;;15.30;2.00;;;9.40;1.00;;;;;;4936308;28;20464;-81
2021/04/22 08:27:43;;;;;;;15.30;2.20;;;9.30;1.00;;;;;;4936511;29;20441;-81
2021/04/22 08:30:45;;;;;;;;;;;;;;;;;;;;;
2021/04/22 08:33:20;;;;;;;20.57;2.07;;;9.00;1.00;;;;;;4936927;29;20541;-83
2021/04/22 08:35:51;;;;;;;21.00;3.40;;;9.00;1.00;;;;;;4936382;29;20463;-82
2021/04/22 08:38:18;;;;;;;24.63;4.10;;;8.80;1.00;;;;;;4936872;29;20445;-82
2021/04/22 08:40:48;;;;;;;16.40;2.37;;;9.50;1.00;;;;;;4936449;29;20449;-82
2021/04/22 08:43:25;;;;;;;21.83;4.60;;;9.50;1.00;;;;;;4937117;29;20457;-83
2021/04/22 08:45:56;;;;;;;19.13;2.53;;;10.30;1.00;;;;;;4936962;29;20459;-81
2021/04/22 08:48:22;;;;;;;21.47;5.20;;;10.70;1.00;;;;;;4936784;28;20442;-84
2021/04/22 08:50:52;;;;;;;15.20;2.27;;;10.50;1.00;;;;;;4936139;29;20535;-82
2021/04/22 08:56:21;;;;;;;17.93;4.00;;;11.10;1.00;;;;;;5466964;23;20517;-81
2021/04/22 08:58:50;;;;;;;20.53;2.80;;;10.70;1.00;;;;;;5056389;28;20443;-82
2021/04/22 09:01:38;;;;;;;17.27;2.00;;;10.70;1.00;;;;;;5055960;28;20934;-81
2021/04/22 09:04:09;;;;;;;23.73;3.77;;;10.60;1.00;;;;;;5056238;28;21033;-82
2021/04/22 09:06:47;;;;;;;;;;;;;;;;;;;;;
2021/04/22 09:09:21;;;;;;;21.00;3.70;;;11.90;1.00;;;;;;5051953;28;20453;-82
2021/04/22 09:12:12;;;;;;;19.40;3.10;;;12.70;1.00;;;;;;5056731;28;20454;-81
2021/04/22 09:14:56;;;;;;;26.37;3.10;;;12.00;1.00;;;;;;5054913;28;20482;-83
2021/04/22 09:20:11;;;;;;;22.40;3.17;;;11.10;1.00;;;;;;5686914;22;20480;-83
2021/04/22 09:23:12;;;;;;;23.33;3.80;;;10.90;1.00;;;;;;5016236;28;20449;-81
2021/04/22 09:25:38;;;;;;;21.20;2.83;;;10.40;1.00;;;;;;5016211;28;20816;-82
2021/04/22 09:28:08;;;;;;;20.93;3.50;;;10.10;1.00;;;;;;5016910;28;20451;-80
2021/04/22 09:30:41;;;;;;;23.60;3.93;;;9.20;1.00;;;;;;5016600;28;20538;-81
2021/04/22 09:33:31;;;;;;;15.30;2.80;;;9.00;1.00;;;;;;4935854;28;20965;-83
2021/04/22 09:36:20;;;;;;;14.33;2.10;;;9.10;1.00;;;;;;4936107;29;20935;-83
2021/04/22 09:39:14;;;;;;;18.00;3.80;;;9.60;1.00;;;;;;4935788;29;20908;-84
2021/04/22 09:41:44;;;;;;;17.50;3.60;;;10.50;1.00;;;;;;4928990;28;20462;-83
2021/04/22 09:44:18;;;;;;;20.80;3.97;;;11.20;1.00;;;;;;4936383;29;20446;-88
2021/04/22 09:46:47;;;;;;;19.10;3.13;;;12.20;1.00;;;;;;4934984;29;20540;-84
2021/04/22 09:49:18;;;;;;;22.53;3.07;;;12.50;1.00;;;;;;4936300;29;20467;-84
2021/04/22 09:52:11;;;;;;;29.80;4.60;;;11.50;1.00;;;;;;4935487;29;20453;-85
2021/04/22 09:54:51;;;;;;;35.83;4.73;;;12.10;1.00;;;;;;4927234;28;20485;-83
2021/04/22 09:57:28;;;;;;;24.13;3.67;;;12.90;1.00;;;;;;4935561;29;20460;-87
2021/04/22 09:59:58;;;;;;;27.30;4.83;;;13.10;1.00;;;;;;4935557;29;20460;-84
2021/04/22 10:02:46;;;;;;;22.57;2.33;;;13.10;1.00;;;;;;4935816;29;20901;-83
2021/04/22 10:05:28;;;;;;;23.27;3.23;;;12.30;1.00;;;;;;4936082;29;20464;-84
2021/04/22 10:08:11;;;;;;;24.90;2.50;;;12.00;1.00;;;;;;4935137;29;20803;-84
2021/04/22 10:11:10;;;;;;;28.40;4.53;;;12.10;1.00;;;;;;4927583;29;20552;-85
2021/04/22 10:13:52;;;;;;;27.83;2.67;;;12.00;1.00;;;;;;4935516;29;20468;-84
2021/04/22 10:19:05;;;;;;;27.05;4.00;;;11.90;1.00;;;;;;5365188;23;20457;-84
2021/04/22 10:21:44;;;;;;;26.43;4.60;;;12.40;1.00;;;;;;5035640;28;20205;-91
2021/04/22 10:24:35;;;;;;;28.00;4.13;;;13.40;1.00;;;;;;5035690;28;20448;-89
2021/04/22 10:33:21;;;;;;;;;;;;;;;;;;;;;
2021/04/22 10:36:10;;;;;;;;;;;;;;;;;;;;;
2021/04/22 10:39:14;;;;;;;33.13;3.00;;;13.50;1.00;;;;;;5033867;28;20837;-84
2021/04/22 10:42:15;;;;;;;23.77;2.80;;;13.20;1.00;;;;;;5021389;28;20448;-86
2021/04/22 10:45:19;;;;;;;26.20;2.47;;;13.10;1.00;;;;;;5035057;28;20829;-83
2021/04/22 10:50:45;;;;;;;23.07;1.97;;;12.70;1.00;;;;;;5033875;28;20788;-83
2021/04/22 10:53:25;;;;;;;27.47;2.50;;;12.90;1.00;;;;;;5034472;28;20518;-82
2021/04/22 10:59:25;;;;;;;24.67;2.63;;;13.90;1.00;;;;;;4935860;28;20449;-84
2021/04/22 11:02:14;;;;;;;;;;;;;;;;;;;;;
2021/04/22 11:05:25;;;;;;;;;;;;;;;;;;;;;
2021/04/22 11:12:28;;;;;;;;;;;;;;;;;;;;;
2021/04/22 11:15:42;;;;;;;;;;;;;;;;;;;;;
2021/04/22 11:21:49;;;;;;;27.80;2.90;;;14.40;1.00;;;;;;4895732;29;20452;-85
2021/04/22 11:24:41;;;;;;;27.80;3.10;;;14.40;1.00;;;;;;4875778;29;20814;-83
2021/04/22 11:27:25;;;;;;;32.33;3.67;;;13.80;1.00;;;;;;4921226;29;20469;-82
2021/04/22 11:42:47;;;;;;;29.83;2.97;;;14.00;1.00;;;;;;4907259;29;20448;-84
2021/04/22 11:52:53;;;;;;;;;;;;;;;;;;;;;
2021/04/22 11:59:00;;;;;;;25.80;2.10;;;14.00;1.00;;;;;;4905413;29;20471;-84
2021/04/22 12:01:40;;;;;;;28.53;2.30;;;14.10;1.00;;;;;;4938447;29;21073;-84
2021/04/22 12:04:10;;;;;;;27.80;2.87;;;14.30;1.00;;;;;;4937532;29;20462;-84
2021/04/22 12:10:33;;;;;;;27.73;2.90;;;14.10;1.00;;;;;;4935059;29;20834;-85
2021/04/22 12:13:16;;;;;;;34.73;3.10;;;14.70;1.00;;;;;;4933137;29;21051;-84
2021/04/22 12:16:15;;;;;;;;;;;;;;;;;;;;;
2021/04/22 12:19:49;;;;;;;26.90;2.20;;;15.10;1.00;;;;;;4917635;28;21010;-84
2021/04/22 12:22:53;;;;;;;28.30;2.20;;;15.10;1.00;;;;;;4888023;28;20823;-84
2021/04/22 12:25:43;;;;;;;33.20;3.90;;;14.50;1.00;;;;;;5012237;28;20452;-86
2021/04/22 12:29:04;;;;;;;;;;;;;;;;;;;;;
2021/04/22 12:31:40;;;;;;;26.20;2.47;;;15.40;1.00;;;;;;4911016;29;20449;-84
2021/04/22 12:43:53;;;;;;;29.57;2.10;;;15.20;1.00;;;;;;4939238;28;20453;-84
2021/04/22 12:46:34;;;;;;;28.90;3.97;;;14.90;1.00;;;;;;4905398;29;20450;-84
2021/04/22 12:49:29;;;;;;;;;;;;;;;;;;;;;
2021/04/22 12:52:47;;;;;;;33.97;3.63;;;15.90;1.00;;;;;;4929622;28;20453;-84
2021/04/22 12:55:29;;;;;;;28.60;2.60;;;16.20;1.00;;;;;;4913804;29;20866;-82
2021/04/22 12:57:57;;;;;;;27.97;2.33;;;15.00;1.00;;;;;;5110935;23;20443;-81
2021/04/22 13:00:56;;;;;;;27.60;2.93;;;14.30;1.00;;;;;;5056458;28;20938;-84
2021/04/22 13:03:41;;;;;;;28.67;5.43;;;14.60;1.00;;;;;;5055873;28;20969;-85
2021/04/22 13:06:38;;;;;;;25.60;3.07;;;14.50;1.00;;;;;;5157537;23;20486;-84
2021/04/22 13:09:43;;;;;;;25.80;3.30;;;15.30;1.00;;;;;;5029051;28;20471;-85
2021/04/22 13:12:27;;;;;;;28.83;2.43;;;15.30;1.00;;;;;;5020761;28;20460;-85
2021/04/22 13:15:02;;;;;;;27.00;3.50;;;15.90;1.00;;;;;;5035380;28;20491;-83
2021/04/22 13:17:49;;;;;;;27.33;2.47;;;15.90;1.00;;;;;;5035521;28;20490;-84
2021/04/22 13:20:49;;;;;;;;;;;;;;;;;;;;;
2021/04/22 13:23:56;;;;;;;29.47;3.30;;;15.30;1.00;;;;;;5035314;28;20514;-84
2021/04/22 13:26:36;;;;;;;32.10;4.60;;;15.40;1.00;;;;;;4935582;29;20552;-86
2021/04/22 13:29:31;;;;;;;29.40;3.20;;;15.60;1.00;;;;;;4936061;29;20609;-85
2021/04/22 13:39:14;;;;;;;34.60;4.73;;;15.60;1.00;;;;;;4934834;29;20466;-84
2021/04/22 13:41:48;;;;;;;35.70;8.10;;;15.20;1.00;;;;;;4866192;29;20460;-84
2021/04/22 13:44:51;;;;;;;33.57;6.23;;;14.80;1.00;;;;;;4935456;29;20860;-83
2021/04/22 13:47:44;;;;;;;34.23;6.10;;;14.30;1.00;;;;;;5033459;28;20455;-84
2021/04/22 13:50:37;;;;;;;31.20;4.53;;;15.00;1.00;;;;;;5034885;28;20970;-84
2021/04/22 13:53:18;;;;;;;33.00;6.60;;;15.00;1.00;;;;;;5000235;28;20456;-83
2021/04/22 13:59:14;;;;;;;30.40;3.50;;;14.80;1.00;;;;;;5033435;28;20547;-83
2021/04/22 14:01:58;;;;;;;;;;;;;;;;;;;;;
2021/04/22 14:04:50;;;;;;;;;;;;;;;;;;;;;
2021/04/22 14:07:48;;;;;;;25.70;3.60;;;14.80;1.00;;;;;;5002546;28;20526;-83
2021/04/22 14:10:47;;;;;;;29.37;4.67;;;14.70;1.00;;;;;;5033326;28;20857;-84
2021/04/22 14:13:55;;;;;;;43.53;7.30;;;14.50;1.00;;;;;;5034173;28;20456;-84
2021/04/22 14:16:46;;;;;;;32.40;4.20;;;15.10;1.00;;;;;;5028314;28;20936;-84
2021/04/22 14:19:20;;;;;;;28.80;5.70;;;15.10;1.00;;;;;;5034635;28;20452;-84
2021/04/22 14:21:59;;;;;;;29.63;4.23;;;14.60;1.00;;;;;;5034154;28;20448;-82
2021/04/22 14:24:35;;;;;;;29.20;5.17;;;14.30;1.00;;;;;;5032430;28;20455;-84
2021/04/22 14:27:08;;;;;;;28.20;5.07;;;14.40;1.00;;;;;;5033860;28;20467;-84
2021/04/22 14:32:26;;;;;;;28.00;5.53;;;15.00;1.00;;;;;;5032063;28;20445;-83
2021/04/22 14:35:00;;;;;;;28.67;5.70;;;14.40;1.00;;;;;;5033739;28;20574;-83
2021/04/22 14:40:26;;;;;;;25.53;2.27;;;15.40;1.00;;;;;;5025927;28;20954;-83
2021/04/22 14:43:26;;;;;;;25.37;3.33;;;14.90;1.00;;;;;;5034095;28;20482;-85
2021/04/22 14:46:13;;;;;;;28.13;3.90;;;14.60;1.00;;;;;;5033257;28;21018;-82
2021/04/22 14:48:50;;;;;;;25.97;3.00;;;14.90;1.00;;;;;;4972234;28;20457;-83
2021/04/22 14:51:41;;;;;;;28.30;3.87;;;15.20;1.00;;;;;;4979257;28;20465;-83
2021/04/22 14:54:28;;;;;;;26.20;4.27;;;15.50;1.00;;;;;;5013575;28;20472;-85
2021/04/22 14:57:02;;;;;;;29.37;4.37;;;15.70;1.00;;;;;;5024109;28;20838;-85
2021/04/22 15:02:43;;;;;;;29.27;3.53;;;15.20;1.00;;;;;;5269132;23;20946;-83
2021/04/22 15:05:27;;;;;;;30.27;4.37;;;15.10;1.00;;;;;;5212726;23;21069;-81
2021/04/22 15:08:00;;;;;;;30.83;3.87;;;14.70;1.00;;;;;;4951934;29;20467;-82
2021/04/22 15:10:32;;;;;;;28.93;3.77;;;14.90;1.00;;;;;;4950185;29;20464;-82
2021/04/22 15:13:06;;;;;;;26.57;3.03;;;15.20;1.00;;;;;;4951568;28;20550;-82
2021/04/22 15:15:44;;;;;;;30.30;3.20;;;15.00;1.00;;;;;;4951257;29;20466;-82
2021/04/22 15:18:16;;;;;;;27.53;3.43;;;15.10;1.00;;;;;;4951613;28;20456;-83
2021/04/22 15:20:54;;;;;;;26.87;2.07;;;15.00;1.00;;;;;;5535097;23;20523;-84
2021/04/22 15:25:59;;;;;;;27.87;3.30;;;14.50;1.00;;;;;;5265128;23;21002;-82
2021/04/22 15:28:43;;;;;;;29.43;4.10;;;14.60;1.00;;;;;;4952176;29;20867;-82
2021/04/22 15:31:26;;;;;;;;;;;;;;;;;;;;;
2021/04/22 15:34:00;;;;;;;30.53;4.00;;;15.80;1.00;;;;;;4938737;29;20482;-83
2021/04/22 15:36:36;;;;;;;26.07;1.90;;;15.70;1.00;;;;;;4953282;29;20460;-82